Time;durP1;ratioP1;P1;durP2;ratioP2;P2;SDS_P1;SDS_P2;PMS_P1;PMS_P2;Temp;Humidity;BMP_temperature;BMP_pressure;BME280_temperature;BME280_humidity;BME280_pressure;Samples;Min_cycle;Max_cycle;Signal;HPM_P1;HPM_P2
2021/07/15 00:00:23;;;;;;;14.37;9.17;;;13.40;99.90;;;;;;5053537;28;20242;-79
2021/07/15 00:02:50;;;;;;;13.17;9.10;;;13.40;99.90;;;;;;5040674;28;20242;-79
2021/07/15 00:05:18;;;;;;;12.27;9.40;;;13.40;99.90;;;;;;5040076;28;20633;-79
2021/07/15 00:07:45;;;;;;;12.87;9.50;;;13.30;99.90;;;;;;5034781;28;20687;-79
2021/07/15 00:10:20;;;;;;;11.97;8.30;;;13.30;99.90;;;;;;5034100;28;20650;-79
2021/07/15 00:12:47;;;;;;;16.20;9.57;;;13.20;99.90;;;;;;5034485;28;20663;-79
2021/07/15 00:15:16;;;;;;;15.20;9.57;;;13.20;99.90;;;;;;5036230;28;20723;-79
2021/07/15 00:17:43;;;;;;;16.10;9.87;;;13.20;99.90;;;;;;5034844;28;20227;-79
2021/07/15 00:20:14;;;;;;;13.13;9.53;;;13.30;99.90;;;;;;5034162;28;20231;-79
2021/07/15 00:22:41;;;;;;;13.97;9.60;;;13.50;99.90;;;;;;5034754;28;20260;-79
2021/07/15 00:25:10;;;;;;;13.40;9.57;;;13.60;99.90;;;;;;5034391;28;20228;-79
2021/07/15 00:27:39;;;;;;;17.17;10.20;;;13.70;99.90;;;;;;5033608;28;20212;-79
2021/07/15 00:30:08;;;;;;;19.13;10.03;;;13.80;99.90;;;;;;5039366;28;20801;-79
2021/07/15 00:32:35;;;;;;;14.57;10.23;;;13.90;99.90;;;;;;5034671;28;20236;-79
2021/07/15 00:35:02;;;;;;;12.47;10.07;;;14.10;99.90;;;;;;5038708;28;20284;-80
2021/07/15 00:37:29;;;;;;;17.17;11.27;;;14.20;99.90;;;;;;5034347;28;20228;-80
2021/07/15 00:39:56;;;;;;;16.43;10.93;;;14.20;99.90;;;;;;5034411;28;20279;-78
2021/07/15 00:42:23;;;;;;;17.67;11.07;;;14.30;99.90;;;;;;5038138;28;20204;-79
2021/07/15 00:44:52;;;;;;;16.40;10.60;;;14.40;99.90;;;;;;5042458;28;20668;-79
2021/07/15 00:47:19;;;;;;;18.90;11.73;;;14.40;99.90;;;;;;5053598;28;20646;-79
2021/07/15 00:49:46;;;;;;;17.20;11.07;;;14.50;99.90;;;;;;5054571;28;20314;-80
2021/07/15 00:52:13;;;;;;;16.63;10.13;;;14.60;99.90;;;;;;5048751;28;20288;-79
2021/07/15 00:54:41;;;;;;;14.27;10.53;;;14.60;99.90;;;;;;5036654;28;20634;-80
2021/07/15 00:57:09;;;;;;;17.07;11.40;;;14.60;99.90;;;;;;5049625;28;20228;-79
2021/07/15 00:59:36;;;;;;;18.03;11.47;;;14.70;99.90;;;;;;5053729;28;20684;-79
2021/07/15 01:02:06;;;;;;;17.27;12.00;;;14.70;99.90;;;;;;5053659;28;20290;-79
2021/07/15 01:04:33;;;;;;;18.53;11.57;;;14.80;99.90;;;;;;5038813;28;20654;-79
2021/07/15 01:07:01;;;;;;;14.90;11.47;;;14.80;99.90;;;;;;5053358;28;20265;-80
2021/07/15 01:09:28;;;;;;;19.00;12.20;;;14.80;99.90;;;;;;5052775;28;20307;-79
2021/07/15 01:12:11;;;;;;;17.67;12.37;;;14.80;99.90;;;;;;5049054;28;20283;-79
2021/07/15 01:14:49;;;;;;;17.30;12.20;;;14.90;99.90;;;;;;5052487;28;20238;-79
2021/07/15 01:17:22;;;;;;;18.87;12.70;;;14.90;99.90;;;;;;5052196;28;20737;-80
2021/07/15 01:20:05;;;;;;;23.17;13.93;;;15.00;99.90;;;;;;5038153;28;20275;-79
2021/07/15 01:22:35;;;;;;;22.77;13.13;;;15.00;99.90;;;;;;5033093;28;20311;-79
2021/07/15 01:25:41;;;;;;;21.73;14.50;;;15.10;99.90;;;;;;5033610;28;20235;-79
2021/07/15 01:28:11;;;;;;;23.13;14.43;;;15.10;99.90;;;;;;5033519;28;20291;-79
2021/07/15 01:30:45;;;;;;;21.60;14.20;;;15.20;99.90;;;;;;5033160;28;20259;-79
2021/07/15 01:33:17;;;;;;;25.10;14.70;;;15.10;99.90;;;;;;5031986;28;20329;-79
2021/07/15 01:35:48;;;;;;;24.80;14.37;;;15.20;99.90;;;;;;5033873;28;20648;-79
2021/07/15 01:38:16;;;;;;;23.70;14.37;;;15.20;99.90;;;;;;5032974;28;20232;-79
2021/07/15 01:40:46;;;;;;;20.70;13.80;;;15.20;99.90;;;;;;5032927;28;20228;-80
2021/07/15 01:43:17;;;;;;;25.60;15.03;;;15.20;99.90;;;;;;5033130;28;20629;-80
2021/07/15 01:45:46;;;;;;;26.70;15.67;;;15.20;99.90;;;;;;5032346;28;20235;-79
2021/07/15 01:48:14;;;;;;;20.30;14.17;;;15.30;99.90;;;;;;5032497;28;20259;-79
2021/07/15 01:50:42;;;;;;;23.80;14.60;;;15.30;99.90;;;;;;5045418;28;20255;-79
2021/07/15 01:53:09;;;;;;;24.07;14.87;;;15.30;99.90;;;;;;5033189;28;20243;-79
2021/07/15 01:55:38;;;;;;;18.10;14.10;;;15.30;99.90;;;;;;5032247;28;20243;-80
2021/07/15 01:58:08;;;;;;;22.60;14.53;;;15.30;99.90;;;;;;5032294;28;20243;-80
2021/07/15 02:00:37;;;;;;;21.70;13.57;;;15.30;99.90;;;;;;5032402;28;20207;-79
2021/07/15 02:03:07;;;;;;;26.10;15.60;;;15.30;99.90;;;;;;5031090;28;20639;-79
2021/07/15 02:05:35;;;;;;;24.20;14.77;;;15.30;99.90;;;;;;5032043;28;20235;-79
2021/07/15 02:08:04;;;;;;;19.33;13.93;;;15.30;99.90;;;;;;5032579;28;20772;-80
2021/07/15 02:10:33;;;;;;;24.00;14.13;;;15.40;99.90;;;;;;5032481;28;20228;-79
2021/07/15 02:13:01;;;;;;;25.33;14.13;;;15.40;99.90;;;;;;5032540;28;20299;-80
2021/07/15 02:15:30;;;;;;;22.83;14.73;;;15.40;99.90;;;;;;5036014;28;20232;-79
2021/07/15 02:17:58;;;;;;;23.40;15.50;;;15.40;99.90;;;;;;5050937;28;20283;-80
2021/07/15 02:20:27;;;;;;;22.37;14.87;;;15.40;99.90;;;;;;5043748;28;20582;-79
2021/07/15 02:22:56;;;;;;;22.97;15.07;;;15.40;99.90;;;;;;5032652;28;20220;-80
2021/07/15 02:25:25;;;;;;;24.63;15.13;;;15.40;99.90;;;;;;5050132;28;20200;-80
2021/07/15 02:27:53;;;;;;;23.13;15.00;;;15.40;99.90;;;;;;5052250;28;20574;-79
2021/07/15 02:30:21;;;;;;;26.53;14.27;;;15.50;99.90;;;;;;5051844;28;20664;-79
2021/07/15 02:32:56;;;;;;;22.83;14.87;;;15.50;99.90;;;;;;5051391;28;20199;-80
2021/07/15 02:35:27;;;;;;;25.23;15.07;;;15.50;99.90;;;;;;5051662;28;20225;-80
2021/07/15 02:37:58;;;;;;;22.67;14.57;;;15.40;99.90;;;;;;5050829;28;20282;-80
2021/07/15 02:40:25;;;;;;;20.87;14.80;;;15.40;99.90;;;;;;5045796;28;20235;-79
2021/07/15 02:42:52;;;;;;;23.30;15.10;;;15.50;99.90;;;;;;5052169;28;20630;-79
2021/07/15 02:45:21;;;;;;;24.03;15.00;;;15.50;99.90;;;;;;5039337;28;20287;-80
2021/07/15 02:47:49;;;;;;;22.23;14.50;;;15.40;99.90;;;;;;5034447;28;20255;-80
2021/07/15 02:50:21;;;;;;;23.17;15.30;;;15.50;99.90;;;;;;5031534;28;20520;-80
2021/07/15 02:52:50;;;;;;;23.60;14.77;;;15.50;99.90;;;;;;5032755;28;20224;-79
2021/07/15 02:55:17;;;;;;;21.37;15.17;;;15.40;99.90;;;;;;5035353;28;20232;-79
2021/07/15 02:57:57;;;;;;;22.13;15.30;;;15.40;99.90;;;;;;5031779;28;20287;-79
2021/07/15 03:00:26;;;;;;;25.67;15.20;;;15.40;99.90;;;;;;5031789;28;20203;-79
2021/07/15 03:02:59;;;;;;;20.73;15.17;;;15.40;99.90;;;;;;5038276;28;20200;-80
2021/07/15 03:05:30;;;;;;;21.70;15.43;;;15.50;99.90;;;;;;5030496;28;20228;-79
2021/07/15 03:08:04;;;;;;;20.40;14.70;;;15.50;99.90;;;;;;5031486;28;20232;-80
2021/07/15 03:10:33;;;;;;;22.97;14.87;;;15.50;99.90;;;;;;5035081;28;20803;-80
2021/07/15 03:13:02;;;;;;;23.53;14.97;;;15.50;99.90;;;;;;5045522;28;20575;-80
2021/07/15 03:15:33;;;;;;;22.87;16.17;;;15.40;99.90;;;;;;5055319;28;20231;-79
2021/07/15 03:18:02;;;;;;;24.13;15.90;;;15.40;99.90;;;;;;5038627;28;20232;-81
2021/07/15 03:20:33;;;;;;;21.63;14.90;;;15.40;99.90;;;;;;5046476;28;20731;-79
2021/07/15 03:23:05;;;;;;;22.87;15.37;;;15.40;99.90;;;;;;5055548;28;20250;-80
2021/07/15 03:25:34;;;;;;;21.83;15.17;;;15.40;99.90;;;;;;5042976;28;20200;-80
2021/07/15 03:28:05;;;;;;;22.83;15.37;;;15.40;99.90;;;;;;5036798;28;20735;-80
2021/07/15 03:30:33;;;;;;;24.87;15.47;;;15.40;99.90;;;;;;5036095;28;20315;-79
2021/07/15 03:33:02;;;;;;;22.23;15.37;;;15.40;99.90;;;;;;5054705;28;20286;-80
2021/07/15 03:35:29;;;;;;;24.10;15.63;;;15.40;99.90;;;;;;5044957;28;20275;-79
2021/07/15 03:37:59;;;;;;;22.20;15.13;;;15.40;99.90;;;;;;5035104;28;20255;-79
2021/07/15 03:40:30;;;;;;;21.67;14.27;;;15.40;99.90;;;;;;5052015;28;20727;-79
2021/07/15 03:42:58;;;;;;;26.17;16.43;;;15.40;99.90;;;;;;5054494;28;20286;-79
2021/07/15 03:45:25;;;;;;;24.60;16.23;;;15.40;99.90;;;;;;5055200;28;20302;-80
2021/07/15 03:47:55;;;;;;;21.57;14.97;;;15.50;99.90;;;;;;5054433;28;20326;-79
2021/07/15 03:50:24;;;;;;;25.53;15.70;;;15.40;99.90;;;;;;5046679;28;20247;-79
2021/07/15 03:52:53;;;;;;;23.30;15.90;;;15.50;99.90;;;;;;5034975;28;20236;-80
2021/07/15 03:55:23;;;;;;;22.67;15.13;;;15.40;99.90;;;;;;5034857;28;20284;-79
2021/07/15 03:57:52;;;;;;;25.37;15.20;;;15.50;99.90;;;;;;5039960;28;20231;-80
2021/07/15 04:00:21;;;;;;;22.90;15.30;;;15.50;99.90;;;;;;5054591;28;20200;-80
2021/07/15 04:02:49;;;;;;;28.10;16.40;;;15.50;99.90;;;;;;5054020;28;20282;-80
2021/07/15 04:05:18;;;;;;;25.33;15.60;;;15.40;99.90;;;;;;5054260;28;20294;-79
2021/07/15 04:07:45;;;;;;;26.03;15.80;;;15.50;99.90;;;;;;5045242;28;20279;-80
2021/07/15 04:10:13;;;;;;;26.13;15.27;;;15.50;99.90;;;;;;5052083;28;20369;-80
2021/07/15 04:12:42;;;;;;;24.30;15.43;;;15.50;99.90;;;;;;5049061;28;20324;-79
2021/07/15 04:15:14;;;;;;;24.47;14.60;;;15.50;99.90;;;;;;5034485;28;20275;-80
2021/07/15 04:17:47;;;;;;;26.30;16.23;;;15.50;99.90;;;;;;5034211;28;20206;-80
2021/07/15 04:20:16;;;;;;;24.90;15.30;;;15.40;99.90;;;;;;5034183;28;20228;-80
2021/07/15 04:22:46;;;;;;;24.30;15.43;;;15.40;99.90;;;;;;5044859;28;20259;-80
2021/07/15 04:25:16;;;;;;;25.97;15.87;;;15.40;99.90;;;;;;5043989;28;20565;-79
2021/07/15 04:27:44;;;;;;;26.17;15.43;;;15.40;99.90;;;;;;5033111;28;20236;-80
2021/07/15 04:30:14;;;;;;;26.33;16.30;;;15.40;99.90;;;;;;5033972;28;20216;-79
2021/07/15 04:32:44;;;;;;;26.97;15.43;;;15.40;99.90;;;;;;5034186;28;20622;-80
2021/07/15 04:35:13;;;;;;;24.67;16.30;;;15.40;99.90;;;;;;5034538;28;20287;-80
2021/07/15 04:37:42;;;;;;;25.00;15.13;;;15.40;99.90;;;;;;5032820;28;20216;-80
2021/07/15 04:40:12;;;;;;;25.77;15.37;;;15.40;99.90;;;;;;5044405;28;20228;-80
2021/07/15 04:42:41;;;;;;;27.27;16.03;;;15.40;99.90;;;;;;5053168;28;20238;-80
2021/07/15 04:45:10;;;;;;;31.00;16.03;;;15.40;99.90;;;;;;5037444;28;20236;-79
2021/07/15 04:47:40;;;;;;;28.60;15.63;;;15.30;99.90;;;;;;5033649;28;20619;-80
2021/07/15 04:50:11;;;;;;;26.47;15.93;;;15.40;99.90;;;;;;5033617;28;20235;-79
2021/07/15 04:52:40;;;;;;;29.77;16.30;;;15.40;99.90;;;;;;5034311;28;20207;-80
2021/07/15 04:55:09;;;;;;;29.60;16.97;;;15.40;99.90;;;;;;5033768;28;20231;-79
2021/07/15 04:57:37;;;;;;;28.57;16.33;;;15.40;99.90;;;;;;5048455;28;20287;-79
2021/07/15 05:00:07;;;;;;;28.30;15.37;;;15.40;99.90;;;;;;5052754;28;20283;-80
2021/07/15 05:02:34;;;;;;;29.07;16.30;;;15.40;99.90;;;;;;5035420;28;20237;-80
2021/07/15 05:05:03;;;;;;;25.57;15.37;;;15.40;99.90;;;;;;5032598;28;20662;-80
2021/07/15 05:07:30;;;;;;;23.13;15.10;;;15.40;99.90;;;;;;5051601;28;20238;-80
2021/07/15 05:09:57;;;;;;;24.70;14.80;;;15.40;99.90;;;;;;5037515;28;20259;-80
2021/07/15 05:12:24;;;;;;;24.20;14.93;;;15.40;99.90;;;;;;5037382;28;20210;-80
2021/07/15 05:14:52;;;;;;;23.80;14.80;;;15.40;99.90;;;;;;5041740;28;20196;-80
2021/07/15 05:17:20;;;;;;;24.03;14.97;;;15.40;99.90;;;;;;5032042;28;20224;-80
2021/07/15 05:19:46;;;;;;;23.00;14.47;;;15.40;99.90;;;;;;5033765;28;20258;-79
2021/07/15 05:22:15;;;;;;;25.33;15.43;;;15.30;99.90;;;;;;5033340;28;20570;-79
2021/07/15 05:24:42;;;;;;;23.90;14.60;;;15.30;99.90;;;;;;5033284;28;20627;-79
2021/07/15 05:27:08;;;;;;;24.83;13.90;;;15.30;99.90;;;;;;5033686;28;20635;-80
2021/07/15 05:29:35;;;;;;;21.70;13.47;;;15.30;99.90;;;;;;5040962;28;20228;-81
2021/07/15 05:32:03;;;;;;;21.07;13.13;;;15.20;99.90;;;;;;5032504;28;20292;-80
2021/07/15 05:34:30;;;;;;;19.50;13.00;;;15.30;99.90;;;;;;5044854;28;20283;-80
2021/07/15 05:36:57;;;;;;;21.60;13.17;;;15.30;99.90;;;;;;5052352;28;20191;-79
2021/07/15 05:39:25;;;;;;;21.87;14.20;;;15.30;99.90;;;;;;5049168;28;20764;-80
2021/07/15 05:41:52;;;;;;;20.37;13.23;;;15.40;99.90;;;;;;5038637;28;20235;-80
2021/07/15 05:44:19;;;;;;;20.67;14.47;;;15.40;99.90;;;;;;5032733;28;20205;-79
2021/07/15 05:46:46;;;;;;;23.83;14.60;;;15.30;99.90;;;;;;5032306;28;20325;-79
2021/07/15 05:49:12;;;;;;;25.80;15.00;;;15.40;99.90;;;;;;5033784;28;20654;-79
2021/07/15 05:51:39;;;;;;;24.93;14.53;;;15.50;99.90;;;;;;5032809;28;20303;-80
2021/07/15 05:54:06;;;;;;;24.53;14.70;;;15.50;99.90;;;;;;5032723;28;20287;-80
2021/07/15 05:56:35;;;;;;;23.87;14.73;;;15.50;99.90;;;;;;5032428;28;20254;-79
2021/07/15 05:59:02;;;;;;;21.33;13.97;;;15.40;99.90;;;;;;5035734;28;20228;-79
2021/07/15 06:01:28;;;;;;;20.00;13.90;;;15.40;99.90;;;;;;5038559;28;20274;-80
2021/07/15 06:03:55;;;;;;;22.17;13.70;;;15.40;99.90;;;;;;5033726;28;20300;-80
2021/07/15 06:06:22;;;;;;;19.93;13.97;;;15.60;99.90;;;;;;5040433;28;20231;-80
2021/07/15 06:08:49;;;;;;;19.63;13.57;;;15.60;99.90;;;;;;5047451;28;20295;-79
2021/07/15 06:11:16;;;;;;;19.87;13.40;;;15.60;99.90;;;;;;5032566;28;20256;-80
2021/07/15 06:13:44;;;;;;;18.50;13.20;;;15.70;99.90;;;;;;5037326;28;20279;-79
2021/07/15 06:16:11;;;;;;;19.90;13.00;;;15.80;99.90;;;;;;5039234;28;20232;-80
2021/07/15 06:18:38;;;;;;;19.60;12.23;;;15.70;99.90;;;;;;5042995;28;20283;-79
2021/07/15 06:21:05;;;;;;;20.97;13.23;;;15.80;99.90;;;;;;5044141;28;20220;-80
2021/07/15 06:23:33;;;;;;;19.30;12.60;;;15.70;99.90;;;;;;5041876;28;20198;-80
2021/07/15 06:26:00;;;;;;;18.33;12.50;;;15.80;99.90;;;;;;5041568;28;20234;-80
2021/07/15 06:28:28;;;;;;;17.47;11.37;;;15.80;99.90;;;;;;5035520;28;20228;-80
2021/07/15 06:30:56;;;;;;;18.30;12.20;;;15.90;99.90;;;;;;5040091;28;20329;-80
2021/07/15 06:33:23;;;;;;;18.87;12.20;;;15.80;99.90;;;;;;5039820;28;20227;-80
2021/07/15 06:35:52;;;;;;;19.57;12.43;;;15.90;99.90;;;;;;5042573;28;20227;-80
2021/07/15 06:38:20;;;;;;;17.10;11.73;;;16.00;99.90;;;;;;5039889;28;20721;-80
2021/07/15 06:40:49;;;;;;;18.87;11.87;;;16.00;99.90;;;;;;5035794;28;20283;-80
2021/07/15 06:43:16;;;;;;;17.50;11.63;;;16.00;99.90;;;;;;5047374;28;20291;-79
2021/07/15 06:45:43;;;;;;;17.30;12.13;;;16.00;99.90;;;;;;5046626;28;20292;-80
2021/07/15 06:48:11;;;;;;;17.70;12.20;;;16.00;99.90;;;;;;5031144;28;20311;-80
2021/07/15 06:50:38;;;;;;;14.90;10.70;;;16.10;99.90;;;;;;5031756;28;20251;-79
2021/07/15 06:53:05;;;;;;;16.37;10.83;;;16.10;99.90;;;;;;5031482;28;20232;-80
2021/07/15 06:55:32;;;;;;;14.23;10.67;;;16.10;99.90;;;;;;5038436;28;20625;-80
2021/07/15 06:57:59;;;;;;;15.37;11.17;;;16.00;99.90;;;;;;5046783;28;20231;-80
2021/07/15 07:00:26;;;;;;;16.00;11.57;;;16.10;99.90;;;;;;5036609;28;20742;-80
2021/07/15 07:02:53;;;;;;;15.27;11.57;;;16.20;99.90;;;;;;5033735;28;20224;-80
2021/07/15 07:05:22;;;;;;;15.33;10.97;;;16.20;99.90;;;;;;5032516;28;20205;-79
2021/07/15 07:07:49;;;;;;;15.10;11.20;;;16.10;99.90;;;;;;5031602;28;20258;-80
2021/07/15 07:10:17;;;;;;;16.93;10.97;;;16.10;99.90;;;;;;5031341;28;20303;-80
2021/07/15 07:12:44;;;;;;;15.03;11.37;;;16.10;99.90;;;;;;5031861;28;20228;-80
2021/07/15 07:15:13;;;;;;;14.90;11.33;;;16.20;99.90;;;;;;5031079;28;20200;-80
2021/07/15 07:17:40;;;;;;;16.50;11.37;;;16.30;99.90;;;;;;5035108;28;20287;-80
2021/07/15 07:20:09;;;;;;;11.67;10.40;;;16.40;99.90;;;;;;5037086;28;20224;-80
2021/07/15 07:22:38;;;;;;;16.00;11.27;;;16.60;99.90;;;;;;5036577;28;20212;-80
2021/07/15 07:25:06;;;;;;;13.80;11.63;;;16.50;99.90;;;;;;5039482;28;20283;-80
2021/07/15 07:27:33;;;;;;;15.50;11.37;;;16.60;99.90;;;;;;5036154;28;20283;-81
2021/07/15 07:30:01;;;;;;;13.37;11.10;;;16.60;99.90;;;;;;5045114;28;20283;-80
2021/07/15 07:32:28;;;;;;;18.30;11.80;;;16.60;99.90;;;;;;5035512;28;20315;-80
2021/07/15 07:34:55;;;;;;;13.47;11.03;;;16.60;99.90;;;;;;5045350;28;20284;-80
2021/07/15 07:37:22;;;;;;;14.33;11.23;;;16.70;99.90;;;;;;5046846;28;20227;-79
2021/07/15 07:39:50;;;;;;;15.10;10.87;;;16.90;99.90;;;;;;5030924;28;20283;-79
2021/07/15 07:42:17;;;;;;;13.27;11.27;;;16.90;99.90;;;;;;5043944;28;20592;-80
2021/07/15 07:44:44;;;;;;;12.93;10.50;;;16.70;99.90;;;;;;5050086;28;20239;-80
2021/07/15 07:47:11;;;;;;;13.53;10.00;;;16.80;99.90;;;;;;5050792;28;20310;-80
2021/07/15 07:49:38;;;;;;;13.77;10.97;;;16.90;99.90;;;;;;5032435;28;20287;-80
2021/07/15 07:52:06;;;;;;;12.37;10.00;;;17.10;99.90;;;;;;5031096;28;20251;-80
2021/07/15 07:54:33;;;;;;;13.60;10.67;;;17.20;99.90;;;;;;5037756;28;20231;-80
2021/07/15 07:57:01;;;;;;;13.87;10.57;;;17.30;99.90;;;;;;5035235;28;20825;-80
2021/07/15 07:59:28;;;;;;;11.70;9.73;;;17.30;99.90;;;;;;5051607;28;20288;-79
2021/07/15 08:01:55;;;;;;;12.83;10.90;;;17.40;99.90;;;;;;5053157;28;20232;-80
2021/07/15 08:04:22;;;;;;;13.57;10.23;;;17.20;99.90;;;;;;5045714;28;20239;-80
2021/07/15 08:06:50;;;;;;;14.30;10.53;;;17.40;99.90;;;;;;5034093;28;20291;-79
2021/07/15 08:09:21;;;;;;;14.75;10.35;;;17.60;99.90;;;;;;5047856;28;20675;-80
2021/07/15 08:11:51;;;;;;;14.87;10.73;;;17.40;99.90;;;;;;5037325;28;20232;-79
2021/07/15 08:14:19;;;;;;;13.47;9.90;;;17.50;99.90;;;;;;5034457;28;20246;-79
2021/07/15 08:16:47;;;;;;;12.17;10.30;;;17.50;99.90;;;;;;5038968;28;20279;-80
2021/07/15 08:19:14;;;;;;;11.30;10.10;;;17.80;99.90;;;;;;5045794;28;20196;-79
2021/07/15 08:21:41;;;;;;;13.93;10.50;;;17.60;99.90;;;;;;5037773;28;20224;-80
2021/07/15 08:24:08;;;;;;;13.30;10.10;;;17.70;99.90;;;;;;5044024;28;20295;-79
2021/07/15 08:26:35;;;;;;;14.37;10.57;;;17.90;99.90;;;;;;5047002;28;20287;-80
2021/07/15 08:29:02;;;;;;;13.20;10.02;;;17.80;99.90;;;;;;5042360;28;20231;-80
2021/07/15 08:31:30;;;;;;;12.52;10.90;;;17.80;99.90;;;;;;5041237;28;20248;-79
2021/07/15 08:33:57;;;;;;;13.85;10.70;;;18.10;99.90;;;;;;5042125;28;20309;-80
2021/07/15 08:36:25;;;;;;;12.18;10.50;;;18.20;99.90;;;;;;5044459;28;20295;-80
2021/07/15 08:38:52;;;;;;;12.85;10.15;;;18.30;99.90;;;;;;5041146;28;20200;-79
2021/07/15 08:41:19;;;;;;;11.27;10.02;;;18.40;99.90;;;;;;5045622;28;20265;-78
2021/07/15 08:43:47;;;;;;;12.85;9.57;;;18.50;99.90;;;;;;5044462;28;20239;-79
2021/07/15 08:46:15;;;;;;;12.93;9.65;;;18.80;99.90;;;;;;5036021;28;20231;-80
2021/07/15 08:48:46;;;;;;;12.70;9.80;;;18.80;99.90;;;;;;5046404;28;20201;-80
2021/07/15 08:51:13;;;;;;;11.18;8.27;;;19.10;99.90;;;;;;5041782;28;20230;-80
2021/07/15 08:53:40;;;;;;;9.07;8.23;;;19.20;99.90;;;;;;5048044;28;20231;-80
2021/07/15 08:58:52;;;;;;;12.75;8.50;;;19.20;99.90;;;;;;5048582;28;20211;-79
2021/07/15 09:01:19;;;;;;;11.38;8.27;;;19.10;99.90;;;;;;5041995;28;20231;-79
2021/07/15 09:03:48;;;;;;;9.63;7.68;;;19.00;99.90;;;;;;5047362;28;20199;-80
2021/07/15 09:06:15;;;;;;;10.38;7.63;;;19.10;99.90;;;;;;5052334;28;20232;-80
2021/07/15 09:08:42;;;;;;;8.80;7.38;;;19.50;99.90;;;;;;5052688;28;20234;-80
2021/07/15 09:11:09;;;;;;;8.70;6.78;;;19.80;99.90;;;;;;5043897;28;20658;-80
2021/07/15 09:13:36;;;;;;;9.07;7.28;;;20.10;99.90;;;;;;5050693;28;20223;-81
2021/07/15 09:16:11;;;;;;;12.57;6.90;;;20.90;99.90;;;;;;5036803;28;20304;-80
2021/07/15 09:18:57;;;;;;;7.80;6.28;;;21.40;99.90;;;;;;5033537;28;20283;-80
2021/07/15 09:21:25;;;;;;;7.35;6.60;;;22.00;99.90;;;;;;5041980;28;20267;-80
2021/07/15 09:23:52;;;;;;;8.65;6.32;;;21.70;99.90;;;;;;5033029;28;20207;-80
2021/07/15 09:26:19;;;;;;;8.35;6.65;;;22.00;99.90;;;;;;5036468;28;20300;-80
2021/07/15 09:28:47;;;;;;;9.77;6.05;;;22.10;99.90;;;;;;5037610;28;20340;-80
2021/07/15 09:31:20;;;;;;;8.27;6.50;;;22.40;99.90;;;;;;5044106;28;20588;-81
2021/07/15 09:33:48;;;;;;;6.63;5.72;;;22.30;99.90;;;;;;5032984;28;20231;-81
2021/07/15 09:36:19;;;;;;;7.93;5.85;;;22.80;99.90;;;;;;5049286;28;20281;-81
2021/07/15 09:38:47;;;;;;;6.90;5.22;;;23.10;99.90;;;;;;5052583;28;20251;-81
2021/07/15 09:41:19;;;;;;;7.53;5.72;;;23.00;99.90;;;;;;5043948;28;20584;-82
2021/07/15 09:43:47;;;;;;;7.40;6.45;;;24.10;99.90;;;;;;5043836;28;20215;-81
2021/07/15 09:46:23;;;;;;;6.32;5.07;;;24.80;99.90;;;;;;5042936;28;20231;-80
2021/07/15 09:49:02;;;;;;;6.63;5.63;;;24.80;99.90;;;;;;5032282;28;20668;-81
2021/07/15 09:51:38;;;;;;;5.90;5.40;;;24.20;99.90;;;;;;5047111;28;20728;-81
2021/07/15 09:54:07;;;;;;;6.28;5.53;;;24.10;99.90;;;;;;5038212;28;20203;-81
2021/07/15 09:56:43;;;;;;;6.22;5.38;;;23.80;99.90;;;;;;5043527;28;20265;-81
2021/07/15 09:59:10;;;;;;;5.68;4.70;;;23.30;99.90;;;;;;5037902;28;20723;-81
2021/07/15 10:01:45;;;;;;;4.97;4.57;;;24.10;99.90;;;;;;5047841;28;20239;-82
2021/07/15 10:04:13;;;;;;;5.07;4.53;;;24.10;99.90;;;;;;5037814;28;20788;-81
2021/07/15 10:06:45;;;;;;;6.03;4.97;;;24.90;99.90;;;;;;5041680;28;20671;-81
2021/07/15 10:09:21;;;;;;;6.68;5.20;;;23.90;99.90;;;;;;5042622;28;20195;-81
2021/07/15 10:11:48;;;;;;;5.60;4.80;;;23.50;99.90;;;;;;5049852;28;20622;-81
2021/07/15 10:14:17;;;;;;;6.63;5.30;;;23.30;99.90;;;;;;5051235;28;20673;-81
2021/07/15 10:16:46;;;;;;;5.50;5.00;;;23.00;99.90;;;;;;5049398;28;20230;-80
2021/07/15 10:19:19;;;;;;;6.72;4.95;;;24.40;99.90;;;;;;5031030;28;20286;-81
2021/07/15 10:21:55;;;;;;;6.47;4.50;;;25.20;99.90;;;;;;5045860;28;20272;-81
2021/07/15 10:24:25;;;;;;;5.60;4.57;;;24.20;99.90;;;;;;5050627;28;20286;-82
2021/07/15 10:26:54;;;;;;;5.60;5.10;;;25.10;99.90;;;;;;5032436;28;20297;-80
2021/07/15 10:29:21;;;;;;;8.55;5.10;;;24.20;99.90;;;;;;5036637;28;20262;-81
2021/07/15 10:31:50;;;;;;;7.13;5.45;;;23.10;99.90;;;;;;5039280;28;20763;-79
2021/07/15 10:34:18;;;;;;;6.57;5.07;;;23.70;99.90;;;;;;5035245;28;20298;-80
2021/07/15 10:36:46;;;;;;;5.88;4.53;;;24.50;99.90;;;;;;5038283;28;20204;-81
2021/07/15 10:39:15;;;;;;;6.57;4.15;;;26.20;99.90;;;;;;5039153;28;20310;-80
2021/07/15 10:41:43;;;;;;;5.82;4.35;;;25.80;99.90;;;;;;5051684;28;20199;-80
2021/07/15 10:44:10;;;;;;;5.40;4.90;;;25.00;99.90;;;;;;5051734;28;20597;-80
2021/07/15 10:46:38;;;;;;;4.85;4.45;;;24.70;99.90;;;;;;5050857;28;20310;-80
2021/07/15 10:49:08;;;;;;;4.20;3.80;;;25.30;99.90;;;;;;5051402;28;20286;-80
2021/07/15 10:51:35;;;;;;;4.88;4.20;;;26.20;99.90;;;;;;5051425;28;20773;-80
2021/07/15 10:54:06;;;;;;;4.50;4.10;;;27.80;99.90;;;;;;5051393;28;20203;-81
2021/07/15 10:56:33;;;;;;;5.85;4.30;;;26.60;99.90;;;;;;5051372;28;20231;-80
2021/07/15 10:59:03;;;;;;;5.10;4.57;;;24.90;99.90;;;;;;5047284;28;20633;-81
2021/07/15 11:01:40;;;;;;;5.43;4.60;;;24.00;99.90;;;;;;5031780;28;20209;-81
2021/07/15 11:04:09;;;;;;;6.85;4.47;;;23.30;99.90;;;;;;5031797;28;20200;-80
2021/07/15 11:06:41;;;;;;;5.75;4.20;;;23.50;99.90;;;;;;5031821;28;20228;-80
2021/07/15 11:09:12;;;;;;;5.30;4.03;;;24.20;99.90;;;;;;5036541;28;20731;-80
2021/07/15 11:11:45;;;;;;;5.32;4.13;;;26.80;99.90;;;;;;5040853;28;20570;-81
2021/07/15 11:14:35;;;;;;;4.35;3.95;;;27.40;99.90;;;;;;5031753;28;20228;-81
2021/07/15 11:17:03;;;;;;;5.32;3.88;;;28.70;99.90;;;;;;5030560;28;20216;-81
2021/07/15 11:20:09;;;;;;;4.88;4.07;;;27.50;99.90;;;;;;5030983;28;20223;-81
2021/07/15 11:22:51;;;;;;;5.63;3.83;;;26.00;99.90;;;;;;5031504;28;20232;-81
2021/07/15 11:25:42;;;;;;;5.05;3.92;;;27.00;99.90;;;;;;5031683;28;20306;-80
2021/07/15 11:28:20;;;;;;;4.35;3.88;;;26.10;99.90;;;;;;5030917;28;20203;-81
2021/07/15 11:30:50;;;;;;;4.22;3.65;;;24.50;99.90;;;;;;5049801;28;20211;-81
2021/07/15 11:33:37;;;;;;;4.57;3.45;;;25.40;99.90;;;;;;5054798;28;20259;-81
2021/07/15 11:36:13;;;;;;;4.30;3.47;;;27.40;99.90;;;;;;5055060;28;20231;-81
2021/07/15 11:38:44;;;;;;;5.05;3.42;;;28.00;99.90;;;;;;5050097;28;20314;-81
2021/07/15 11:41:14;;;;;;;3.75;3.42;;;27.50;99.90;;;;;;5035228;28;20196;-81
2021/07/15 11:43:53;;;;;;;5.32;3.42;;;26.80;99.90;;;;;;5034968;28;20283;-81
2021/07/15 11:46:22;;;;;;;4.05;3.65;;;26.00;99.90;;;;;;5040819;28;20239;-80
2021/07/15 11:49:07;;;;;;;6.88;3.80;;;25.60;99.90;;;;;;5042130;28;20249;-81
2021/07/15 11:51:43;;;;;;;5.05;3.70;;;25.50;99.90;;;;;;5034621;28;20242;-80
2021/07/15 11:54:42;;;;;;;3.58;3.28;;;26.30;99.90;;;;;;5041892;28;20295;-81
2021/07/15 11:57:30;;;;;;;3.53;3.22;;;26.10;99.90;;;;;;5045005;28;20288;-81
2021/07/15 12:00:12;;;;;;;3.85;3.53;;;26.50;99.90;;;;;;5040377;28;20200;-81
2021/07/15 12:02:40;;;;;;;4.30;3.90;;;25.30;99.90;;;;;;5041695;28;20193;-81
2021/07/15 12:05:20;;;;;;;5.80;4.10;;;24.90;99.90;;;;;;5041624;28;20234;-81
2021/07/15 12:07:50;;;;;;;3.80;3.25;;;24.50;99.90;;;;;;5043247;28;20278;-80
2021/07/15 12:10:22;;;;;;;4.88;3.55;;;25.10;99.90;;;;;;5051653;28;20675;-81
2021/07/15 12:12:51;;;;;;;4.43;3.45;;;24.60;99.90;;;;;;5042926;28;20247;-81
2021/07/15 12:15:23;;;;;;;3.55;3.10;;;25.50;99.90;;;;;;5044507;28;20952;-81
2021/07/15 12:17:51;;;;;;;3.42;3.10;;;26.70;99.90;;;;;;5041129;28;20219;-81
2021/07/15 12:20:19;;;;;;;3.60;3.28;;;26.50;99.90;;;;;;5044087;28;20235;-81
2021/07/15 12:22:49;;;;;;;4.88;3.80;;;25.40;99.90;;;;;;5050857;28;20692;-81
2021/07/15 12:25:20;;;;;;;5.78;3.47;;;24.20;99.90;;;;;;5035824;28;20235;-81
2021/07/15 12:27:50;;;;;;;3.97;3.50;;;24.10;99.90;;;;;;5046595;28;20963;-80
2021/07/15 12:30:19;;;;;;;3.88;2.90;;;24.60;99.90;;;;;;5045458;28;20283;-81
2021/07/15 12:33:00;;;;;;;4.05;2.78;;;25.90;99.90;;;;;;5052502;28;20338;-81
2021/07/15 12:35:33;;;;;;;3.75;3.35;;;26.70;99.90;;;;;;5043279;28;21012;-81
2021/07/15 12:38:16;;;;;;;4.13;2.67;;;28.50;99.90;;;;;;5038061;28;20279;-81
2021/07/15 12:40:43;;;;;;;3.42;3.03;;;26.60;99.90;;;;;;5042376;28;20262;-80
2021/07/15 12:43:15;;;;;;;3.50;3.20;;;25.30;99.90;;;;;;5047560;28;20625;-81
2021/07/15 12:45:47;;;;;;;4.13;2.90;;;24.90;99.90;;;;;;5038105;28;21584;-80
2021/07/15 12:48:15;;;;;;;4.13;2.95;;;24.90;99.90;;;;;;5038528;28;20232;-80